Time;durP1;ratioP1;P1;durP2;ratioP2;P2;SDS_P1;SDS_P2;PMS_P1;PMS_P2;Temp;Humidity;BMP_temperature;BMP_pressure;BME280_temperature;BME280_humidity;BME280_pressure;Samples;Min_cycle;Max_cycle;Signal;HPM_P1;HPM_P2
2021/03/27 00:02:24;;;;;;;11.20;6.40;;;;;;;;;;5029869;28;20017;-85
2021/03/27 00:05:14;;;;;;;9.07;5.80;;;;;;;;;;5021809;28;20084;-88
2021/03/27 00:08:02;;;;;;;7.63;5.35;;;;;;;;;;5034691;28;20025;-89
2021/03/27 00:10:55;;;;;;;9.65;5.93;;;;;;;;;;5032841;28;20025;-90
2021/03/27 00:14:16;;;;;;;9.52;5.63;;;;;;;;;;5015081;28;20117;-86
2021/03/27 00:17:10;;;;;;;12.48;5.93;;;;;;;;;;4927166;29;20090;-85
2021/03/27 00:20:02;;;;;;;8.32;5.88;;;;;;;;;;5012931;28;20033;-84
2021/03/27 00:22:59;;;;;;;12.80;5.00;;;;;;;;;;5001998;28;20372;-83
2021/03/27 00:25:51;;;;;;;8.82;5.55;;;;;;;;;;5006710;28;20498;-83
2021/03/27 00:28:45;;;;;;;8.13;5.13;;;;;;;;;;5013557;28;20041;-83
2021/03/27 00:31:38;;;;;;;7.18;4.45;;;;;;;;;;5011105;28;20048;-85
2021/03/27 00:34:27;;;;;;;8.32;4.78;;;;;;;;;;5028523;28;20108;-84
2021/03/27 00:37:15;;;;;;;7.00;4.38;;;;;;;;;;5012417;28;20021;-83
2021/03/27 00:40:12;;;;;;;7.88;4.68;;;;;;;;;;5015506;28;20026;-86
2021/03/27 00:43:02;;;;;;;7.90;3.95;;;;;;;;;;5024693;28;20083;-83
2021/03/27 00:45:50;;;;;;;6.30;4.55;;;;;;;;;;5009201;28;20112;-83
2021/03/27 00:48:38;;;;;;;11.65;4.30;;;;;;;;;;5025599;28;20459;-83
2021/03/27 00:51:26;;;;;;;7.63;4.50;;;;;;;;;;5011271;28;20435;-86
2021/03/27 00:54:25;;;;;;;8.77;4.70;;;;;;;;;;5027061;28;20022;-83
2021/03/27 00:57:15;;;;;;;6.75;4.22;;;;;;;;;;5024468;28;20025;-84
2021/03/27 01:00:01;;;;;;;7.80;4.45;;;;;;;;;;5015075;28;20111;-83
2021/03/27 01:03:09;;;;;;;5.93;3.67;;;;;;;;;;4995880;28;20031;-84
2021/03/27 01:05:55;;;;;;;7.75;4.47;;;;;;;;;;5014956;28;20046;-84
2021/03/27 01:08:43;;;;;;;7.13;4.45;;;;;;;;;;5012030;28;20488;-84
2021/03/27 01:11:33;;;;;;;6.63;4.15;;;;;;;;;;5020675;28;20040;-84
2021/03/27 01:14:21;;;;;;;7.70;4.72;;;;;;;;;;5026421;28;20033;-85
2021/03/27 01:17:07;;;;;;;7.95;4.63;;;;;;;;;;5008254;28;20029;-84
2021/03/27 01:19:57;;;;;;;7.38;4.55;;;;;;;;;;5010871;28;20592;-84
2021/03/27 01:22:44;;;;;;;6.80;4.50;;;;;;;;;;5010036;28;20026;-84
2021/03/27 01:25:32;;;;;;;11.40;5.15;;;;;;;;;;5014171;28;20025;-84
2021/03/27 01:28:23;;;;;;;7.07;4.38;;;;;;;;;;5006302;28;20029;-84
2021/03/27 01:31:17;;;;;;;7.55;5.28;;;;;;;;;;5027062;28;20071;-82
2021/03/27 01:34:05;;;;;;;8.82;4.68;;;;;;;;;;5007254;28;20053;-84
2021/03/27 01:37:01;;;;;;;7.95;4.80;;;;;;;;;;5000213;28;20075;-85
2021/03/27 01:39:47;;;;;;;6.20;4.15;;;;;;;;;;5001220;28;20022;-82
2021/03/27 01:42:51;;;;;;;6.13;4.45;;;;;;;;;;5009458;28;20112;-83
2021/03/27 01:45:43;;;;;;;7.47;4.55;;;;;;;;;;5011728;28;20017;-83
2021/03/27 01:48:47;;;;;;;8.23;4.38;;;;;;;;;;5009219;28;20025;-84
2021/03/27 01:51:42;;;;;;;10.18;4.60;;;;;;;;;;5025522;28;20657;-85
2021/03/27 01:57:22;;;;;;;8.05;4.25;;;;;;;;;;5954117;22;20016;-79
2021/03/27 02:00:14;;;;;;;8.90;4.75;;;;;;;;;;4967477;28;20041;-78
2021/03/27 02:03:02;;;;;;;10.70;5.10;;;;;;;;;;4979380;28;20116;-78
2021/03/27 02:06:01;;;;;;;8.40;5.22;;;;;;;;;;4981777;28;20085;-81
2021/03/27 02:09:08;;;;;;;7.40;4.90;;;;;;;;;;4978893;28;20033;-78
2021/03/27 02:11:59;;;;;;;7.72;5.00;;;;;;;;;;4977015;28;20038;-79
2021/03/27 02:14:51;;;;;;;7.47;4.95;;;;;;;;;;4972910;28;20031;-79
2021/03/27 02:17:55;;;;;;;9.00;5.20;;;;;;;;;;4982278;28;20033;-80
2021/03/27 02:20:52;;;;;;;8.73;5.53;;;;;;;;;;4980712;28;20030;-80
2021/03/27 02:23:43;;;;;;;9.25;5.82;;;;;;;;;;4984971;28;20048;-79
2021/03/27 02:26:52;;;;;;;8.38;5.50;;;;;;;;;;4978264;28;20331;-79
2021/03/27 02:29:56;;;;;;;12.50;6.32;;;;;;;;;;4993162;28;20049;-79
2021/03/27 02:32:49;;;;;;;9.70;5.38;;;;;;;;;;4993233;28;20561;-78
2021/03/27 02:35:34;;;;;;;8.30;5.22;;;;;;;;;;4978361;28;20471;-79
2021/03/27 02:38:42;;;;;;;10.85;6.13;;;;;;;;;;4992007;28;20042;-78
2021/03/27 02:41:33;;;;;;;10.02;6.47;;;;;;;;;;4962836;28;20049;-78
2021/03/27 02:44:30;;;;;;;9.68;6.03;;;;;;;;;;4993307;28;20047;-78
2021/03/27 02:47:28;;;;;;;9.35;5.95;;;;;;;;;;4975373;28;20014;-80
2021/03/27 02:50:17;;;;;;;9.65;6.38;;;;;;;;;;4985003;28;20034;-79
2021/03/27 02:53:15;;;;;;;11.07;6.00;;;;;;;;;;4984669;28;20044;-79
2021/03/27 02:56:19;;;;;;;9.15;5.70;;;;;;;;;;4982625;28;20579;-78
2021/03/27 02:59:13;;;;;;;6.88;4.55;;;;;;;;;;4997023;28;20137;-78
2021/03/27 03:01:59;;;;;;;9.23;5.13;;;;;;;;;;4982653;28;20085;-79
2021/03/27 03:04:44;;;;;;;8.30;5.63;;;;;;;;;;4980002;28;20458;-79
2021/03/27 03:07:31;;;;;;;6.80;4.95;;;;;;;;;;4982451;28;20030;-79
2021/03/27 03:10:19;;;;;;;9.52;5.30;;;;;;;;;;4987670;28;20034;-79
2021/03/27 03:13:15;;;;;;;8.40;4.90;;;;;;;;;;4982923;28;20029;-79
2021/03/27 03:16:09;;;;;;;9.25;5.30;;;;;;;;;;4978634;28;20053;-79
2021/03/27 03:19:01;;;;;;;6.93;4.70;;;;;;;;;;4980151;28;20025;-80
2021/03/27 03:22:05;;;;;;;8.18;5.05;;;;;;;;;;4992441;28;20041;-79
2021/03/27 03:24:56;;;;;;;11.18;5.80;;;;;;;;;;4981990;28;20129;-79
2021/03/27 03:27:44;;;;;;;7.95;5.28;;;;;;;;;;4985601;28;20028;-78
2021/03/27 03:30:50;;;;;;;7.70;4.38;;;;;;;;;;4984388;28;20035;-79
2021/03/27 03:34:07;;;;;;;7.45;5.00;;;;;;;;;;4979495;28;20023;-79
2021/03/27 03:37:01;;;;;;;7.20;5.15;;;;;;;;;;4974298;28;20641;-78
2021/03/27 03:39:49;;;;;;;9.30;5.50;;;;;;;;;;4997621;28;20041;-80
2021/03/27 03:42:50;;;;;;;8.70;4.82;;;;;;;;;;4975100;28;20018;-81
2021/03/27 03:45:38;;;;;;;8.00;5.15;;;;;;;;;;4991223;28;20026;-80
2021/03/27 03:48:42;;;;;;;7.53;4.40;;;;;;;;;;4982940;28;20187;-80
2021/03/27 03:51:45;;;;;;;3.95;2.75;;;;;;;;;;4987682;28;20018;-79
2021/03/27 03:54:50;;;;;;;3.35;2.30;;;;;;;;;;4979184;28;20046;-79
2021/03/27 03:57:49;;;;;;;3.47;1.88;;;;;;;;;;4972030;28;20451;-80
2021/03/27 04:00:34;;;;;;;2.10;1.30;;;;;;;;;;4991722;28;20030;-80
2021/03/27 04:03:32;;;;;;;2.88;1.30;;;;;;;;;;4996359;28;20065;-79
2021/03/27 04:06:23;;;;;;;3.65;0.95;;;;;;;;;;4987822;28;20045;-80
2021/03/27 04:09:27;;;;;;;2.58;1.15;;;;;;;;;;4982965;28;20388;-79
2021/03/27 04:12:21;;;;;;;1.27;0.90;;;;;;;;;;4981244;28;20530;-78
2021/03/27 04:15:14;;;;;;;1.38;1.10;;;;;;;;;;4990440;28;20042;-79
2021/03/27 04:18:18;;;;;;;2.45;1.35;;;;;;;;;;5003910;28;20451;-79
2021/03/27 04:21:19;;;;;;;3.75;0.90;;;;;;;;;;4982026;28;20026;-79
2021/03/27 04:24:13;;;;;;;1.48;0.93;;;;;;;;;;4979435;28;20072;-80
2021/03/27 04:27:05;;;;;;;1.10;0.82;;;;;;;;;;4982213;28;20120;-80
2021/03/27 04:33:30;;;;;;;2.25;0.68;;;;;;;;;;4984636;28;20485;-81
2021/03/27 04:36:17;;;;;;;4.38;0.90;;;;;;;;;;4986874;28;20030;-81
2021/03/27 04:39:07;;;;;;;1.13;0.93;;;;;;;;;;4985772;28;20034;-80
2021/03/27 04:42:01;;;;;;;1.42;0.70;;;;;;;;;;4977277;28;20401;-81
2021/03/27 04:44:52;;;;;;;1.95;1.13;;;;;;;;;;4993564;28;20037;-81
2021/03/27 04:47:40;;;;;;;1.95;1.02;;;;;;;;;;4984373;28;20057;-79
2021/03/27 04:50:40;;;;;;;3.45;0.98;;;;;;;;;;4980943;28;20035;-80
2021/03/27 04:53:28;;;;;;;1.25;0.90;;;;;;;;;;4996959;28;20042;-81
2021/03/27 04:56:32;;;;;;;2.10;0.88;;;;;;;;;;4991542;28;20073;-81
2021/03/27 04:59:18;;;;;;;1.15;0.68;;;;;;;;;;4997627;28;20042;-80
2021/03/27 05:02:14;;;;;;;0.70;0.70;;;;;;;;;;4996375;28;20026;-80
2021/03/27 05:05:06;;;;;;;1.90;0.80;;;;;;;;;;4984801;28;20097;-79
2021/03/27 05:07:51;;;;;;;1.50;0.95;;;;;;;;;;4985546;28;20041;-80
2021/03/27 05:10:44;;;;;;;1.08;0.73;;;;;;;;;;4982261;28;20037;-81
2021/03/27 05:13:37;;;;;;;1.05;0.60;;;;;;;;;;4995509;28;20026;-80
2021/03/27 05:16:25;;;;;;;1.50;0.77;;;;;;;;;;4980177;28;20091;-81
2021/03/27 05:19:10;;;;;;;1.42;0.70;;;;;;;;;;4997415;28;20034;-80
2021/03/27 05:21:58;;;;;;;1.15;0.70;;;;;;;;;;4988401;28;20026;-80
2021/03/27 05:25:00;;;;;;;1.02;0.68;;;;;;;;;;4996708;28;20507;-80
2021/03/27 05:28:04;;;;;;;0.60;0.60;;;;;;;;;;4978594;28;20061;-80
2021/03/27 05:31:07;;;;;;;1.98;0.63;;;;;;;;;;4993501;28;20042;-82
2021/03/27 05:33:59;;;;;;;0.60;0.60;;;;;;;;;;4991394;28;20120;-80
2021/03/27 05:37:03;;;;;;;1.13;0.60;;;;;;;;;;4982139;28;20473;-81
2021/03/27 05:39:51;;;;;;;0.60;0.60;;;;;;;;;;4986646;28;20021;-81
2021/03/27 05:42:36;;;;;;;1.95;0.60;;;;;;;;;;4977769;28;20022;-80
2021/03/27 05:45:24;;;;;;;0.80;0.80;;;;;;;;;;4982824;28;20054;-80
2021/03/27 05:48:16;;;;;;;0.57;0.55;;;;;;;;;;4982007;28;20421;-81
2021/03/27 05:51:20;;;;;;;1.40;0.73;;;;;;;;;;4984691;28;20574;-80
2021/03/27 05:54:14;;;;;;;1.40;0.60;;;;;;;;;;4982749;28;20294;-80
2021/03/27 05:57:18;;;;;;;0.57;0.50;;;;;;;;;;4984206;28;20494;-81
2021/03/27 06:00:22;;;;;;;0.45;0.45;;;;;;;;;;4979836;28;20755;-81
2021/03/27 06:03:26;;;;;;;1.20;0.60;;;;;;;;;;4976110;28;20037;-80
2021/03/27 06:06:24;;;;;;;1.95;1.13;;;;;;;;;;4978509;28;21103;-80
2021/03/27 06:09:12;;;;;;;0.82;0.57;;;;;;;;;;4984669;28;20029;-82
2021/03/27 06:12:09;;;;;;;1.27;0.70;;;;;;;;;;4998484;28;20053;-79
2021/03/27 06:15:12;;;;;;;1.48;1.05;;;;;;;;;;4973027;28;20041;-79
2021/03/27 06:17:57;;;;;;;1.17;0.85;;;;;;;;;;4967896;28;20100;-80
2021/03/27 06:21:01;;;;;;;2.13;0.80;;;;;;;;;;4984594;28;20026;-81
2021/03/27 06:23:55;;;;;;;2.45;0.90;;;;;;;;;;4979573;28;20033;-79
2021/03/27 06:26:57;;;;;;;0.95;0.73;;;;;;;;;;4968074;28;20575;-80
2021/03/27 06:29:54;;;;;;;2.35;0.80;;;;;;;;;;4981009;28;20480;-81
2021/03/27 06:32:54;;;;;;;4.47;0.93;;;;;;;;;;4994379;28;20395;-80
2021/03/27 06:35:39;;;;;;;0.85;0.80;;;;;;;;;;4979240;28;20511;-80
2021/03/27 06:38:43;;;;;;;1.92;1.13;;;;;;;;;;4996924;28;20038;-80
2021/03/27 06:41:47;;;;;;;2.30;0.88;;;;;;;;;;4994604;28;20034;-81
2021/03/27 06:44:51;;;;;;;1.45;0.70;;;;;;;;;;4996408;28;20354;-80
2021/03/27 06:47:51;;;;;;;1.90;1.00;;;;;;;;;;4979562;28;20361;-80
2021/03/27 06:50:42;;;;;;;1.20;0.80;;;;;;;;;;4979898;28;20034;-81
2021/03/27 06:53:27;;;;;;;3.22;1.10;;;;;;;;;;4984061;28;20389;-82
2021/03/27 06:56:13;;;;;;;2.20;1.00;;;;;;;;;;4981643;28;20131;-79
2021/03/27 06:59:15;;;;;;;1.65;0.90;;;;;;;;;;4984966;28;20049;-80
2021/03/27 07:02:10;;;;;;;2.38;1.40;;;;;;;;;;5000201;28;20034;-80
2021/03/27 07:05:14;;;;;;;4.50;1.20;;;;;;;;;;4987927;28;20037;-82
2021/03/27 07:08:02;;;;;;;2.63;1.05;;;;;;;;;;4986959;28;20089;-81
2021/03/27 07:10:59;;;;;;;2.13;0.80;;;;;;;;;;4985968;28;20034;-81
2021/03/27 07:14:48;;;;;;;1.63;0.98;;;;;;;;;;4984435;28;20033;-80
2021/03/27 07:17:37;;;;;;;3.60;1.40;;;;;;;;;;4980529;28;20040;-84
2021/03/27 07:20:34;;;;;;;2.47;1.10;;;;;;;;;;4995981;28;20030;-81
2021/03/27 07:23:25;;;;;;;1.92;1.08;;;;;;;;;;4996674;28;20022;-81
2021/03/27 07:26:41;;;;;;;4.82;1.17;;;;;;;;;;4965935;28;20022;-81
2021/03/27 07:29:33;;;;;;;3.70;0.88;;;;;;;;;;4995659;28;20025;-81
2021/03/27 07:32:34;;;;;;;2.60;1.00;;;;;;;;;;4976539;28;20045;-81
2021/03/27 07:35:28;;;;;;;2.92;1.42;;;;;;;;;;4987346;28;20030;-84
2021/03/27 07:38:32;;;;;;;2.33;1.40;;;;;;;;;;4990327;28;20076;-83
2021/03/27 07:41:20;;;;;;;2.58;1.17;;;;;;;;;;4978927;28;20051;-90
2021/03/27 07:44:16;;;;;;;2.92;1.50;;;;;;;;;;5001652;28;20045;-87
2021/03/27 07:47:12;;;;;;;3.42;1.35;;;;;;;;;;5013956;28;20022;-90
2021/03/27 07:50:16;;;;;;;1.42;0.95;;;;;;;;;;5005023;28;20045;-88
2021/03/27 07:53:20;;;;;;;4.25;1.50;;;;;;;;;;5009723;28;20024;-89
2021/03/27 07:56:20;;;;;;;1.25;1.15;;;;;;;;;;5025057;28;20034;-89
2021/03/27 07:59:24;;;;;;;1.55;0.88;;;;;;;;;;5004676;28;20043;-89
2021/03/27 08:02:30;;;;;;;1.40;1.17;;;;;;;;;;5020410;28;20053;-91
2021/03/27 08:05:31;;;;;;;1.85;1.00;;;;;;;;;;5002065;28;20033;-83
2021/03/27 08:08:25;;;;;;;3.70;1.25;;;;;;;;;;5011151;28;20030;-87
2021/03/27 08:11:14;;;;;;;3.30;1.20;;;;;;;;;;4996993;28;20256;-87
2021/03/27 08:14:11;;;;;;;7.05;1.92;;;;;;;;;;4996249;28;20023;-87
2021/03/27 08:16:56;;;;;;;3.83;1.25;;;;;;;;;;4982030;28;20056;-87
2021/03/27 08:20:00;;;;;;;4.72;2.25;;;;;;;;;;4984149;28;20023;-86
2021/03/27 08:23:01;;;;;;;8.38;2.45;;;;;;;;;;4997981;28;20037;-84
2021/03/27 08:25:58;;;;;;;7.97;2.05;;;;;;;;;;4984649;28;20033;-87
2021/03/27 08:28:46;;;;;;;4.28;1.60;;;;;;;;;;4985218;28;20661;-86
2021/03/27 08:31:43;;;;;;;6.72;1.90;;;;;;;;;;4984439;28;20023;-88
2021/03/27 08:34:47;;;;;;;4.40;1.40;;;;;;;;;;4992612;28;20053;-85
2021/03/27 08:37:39;;;;;;;5.88;1.70;;;;;;;;;;4982000;28;20159;-84
2021/03/27 08:40:28;;;;;;;2.50;1.00;;;;;;;;;;4992738;28;20048;-84
2021/03/27 08:43:13;;;;;;;8.35;1.88;;;;;;;;;;4978566;28;20038;-83
2021/03/27 08:46:07;;;;;;;3.00;1.10;;;;;;;;;;4973438;28;20031;-87
2021/03/27 08:49:06;;;;;;;1.30;1.20;;;;;;;;;;4979624;28;20132;-85
2021/03/27 08:52:10;;;;;;;20.27;1.58;;;;;;;;;;4975348;28;20030;-85
2021/03/27 08:55:07;;;;;;;2.22;1.23;;;;;;;;;;4979957;28;20061;-85
2021/03/27 08:58:11;;;;;;;1.95;1.00;;;;;;;;;;4985514;28;20046;-83
2021/03/27 09:01:15;;;;;;;3.30;1.30;;;;;;;;;;4978405;28;20023;-86
2021/03/27 09:04:10;;;;;;;1.08;1.00;;;;;;;;;;4991765;28;20116;-86
2021/03/27 09:07:03;;;;;;;1.77;1.20;;;;;;;;;;4995722;28;20053;-84
2021/03/27 09:09:55;;;;;;;2.35;1.27;;;;;;;;;;4981704;28;20049;-86
2021/03/27 09:13:05;;;;;;;2.33;1.00;;;;;;;;;;4980950;28;20026;-86
2021/03/27 09:15:50;;;;;;;3.67;1.60;;;;;;;;;;4975985;28;20065;-86
2021/03/27 09:18:45;;;;;;;4.60;1.98;;;;;;;;;;4984682;28;20113;-86
2021/03/27 09:21:40;;;;;;;4.90;1.50;;;;;;;;;;4975784;28;20061;-84
2021/03/27 09:24:30;;;;;;;4.05;1.20;;;;;;;;;;4992591;28;20184;-85
2021/03/27 09:27:15;;;;;;;;;;;;;;;;;;4993986;28;20029;-83
2021/03/27 09:30:06;;;;;;;2.13;1.25;;;;;;;;;;4997026;28;19995;-82
2021/03/27 09:33:01;;;;;;;3.03;1.50;;;;;;;;;;4978077;28;20372;-83
2021/03/27 09:35:51;;;;;;;3.13;1.40;;;;;;;;;;4993867;28;20117;-83
2021/03/27 09:39:03;;;;;;;1.60;1.40;;;;;;;;;;4993371;28;20026;-82
2021/03/27 09:42:03;;;;;;;3.42;1.80;;;;;;;;;;4978911;28;20022;-82
2021/03/27 09:45:07;;;;;;;4.00;1.30;;;;;;;;;;4982749;28;20440;-81
2021/03/27 09:47:52;;;;;;;3.00;0.90;;;;;;;;;;4975329;28;20343;-82
2021/03/27 09:50:53;;;;;;;2.42;1.10;;;;;;;;;;4982521;28;20026;-79
2021/03/27 09:53:57;;;;;;;1.50;1.40;;;;;;;;;;4974037;28;20032;-83
2021/03/27 09:56:48;;;;;;;1.83;1.35;;;;;;;;;;4991955;28;20428;-79
2021/03/27 09:59:38;;;;;;;3.50;1.85;;;;;;;;;;4981304;28;20039;-81
2021/03/27 10:02:35;;;;;;;1.73;1.20;;;;;;;;;;4979226;28;20616;-86
2021/03/27 10:05:47;;;;;;;3.92;1.25;;;;;;;;;;4994884;28;20031;-88
2021/03/27 10:08:38;;;;;;;1.42;1.10;;;;;;;;;;4981046;28;20219;-89
2021/03/27 10:11:26;;;;;;;3.35;1.20;;;;;;;;;;4969522;28;20034;-88
2021/03/27 10:14:42;;;;;;;5.38;1.70;;;;;;;;;;4982157;28;20121;-88
2021/03/27 10:17:33;;;;;;;2.65;1.25;;;;;;;;;;4978416;28;20428;-88
2021/03/27 10:20:26;;;;;;;6.15;2.20;;;;;;;;;;4984621;28;20002;-87
2021/03/27 10:23:31;;;;;;;2.22;1.27;;;;;;;;;;4982792;28;20022;-86
2021/03/27 10:26:42;;;;;;;3.63;1.88;;;;;;;;;;4986025;28;20428;-87
2021/03/27 10:29:42;;;;;;;3.47;2.25;;;;;;;;;;4989540;28;20037;-86
2021/03/27 10:32:30;;;;;;;3.88;1.42;;;;;;;;;;4994962;28;20022;-87
2021/03/27 10:35:34;;;;;;;1.92;1.70;;;;;;;;;;4982073;28;20109;-87
2021/03/27 10:38:32;;;;;;;3.25;1.75;;;;;;;;;;4983287;28;20036;-88
2021/03/27 10:41:24;;;;;;;5.15;1.25;;;;;;;;;;4979046;28;20026;-87
2021/03/27 10:44:24;;;;;;;2.15;1.00;;;;;;;;;;4991794;28;20681;-86
2021/03/27 10:47:16;;;;;;;2.22;1.90;;;;;;;;;;4985908;28;20033;-87
2021/03/27 10:50:16;;;;;;;2.63;1.80;;;;;;;;;;4986932;28;20109;-89
2021/03/27 10:53:19;;;;;;;3.03;1.45;;;;;;;;;;4983344;28;20428;-88
2021/03/27 10:56:12;;;;;;;5.03;1.70;;;;;;;;;;4978376;28;20049;-88
2021/03/27 10:59:16;;;;;;;1.92;1.70;;;;;;;;;;4977324;28;20050;-88
2021/03/27 11:02:20;;;;;;;1.95;1.52;;;;;;;;;;4992172;28;20033;-88
2021/03/27 11:05:11;;;;;;;1.58;0.95;;;;;;;;;;4983725;28;20034;-88
2021/03/27 11:08:19;;;;;;;2.78;1.42;;;;;;;;;;4984512;28;20177;-87
2021/03/27 11:11:10;;;;;;;2.83;1.40;;;;;;;;;;4974472;28;20341;-86
2021/03/27 11:13:55;;;;;;;3.47;1.17;;;;;;;;;;4993504;28;20027;-85
2021/03/27 11:17:05;;;;;;;6.95;1.48;;;;;;;;;;4980423;28;20105;-84
2021/03/27 11:20:07;;;;;;;2.25;1.15;;;;;;;;;;4985305;28;20023;-84
2021/03/27 11:23:11;;;;;;;4.60;1.70;;;;;;;;;;4976394;28;20027;-85
2021/03/27 11:26:15;;;;;;;2.85;1.88;;;;;;;;;;4999223;28;20025;-82
2021/03/27 11:29:10;;;;;;;3.50;1.73;;;;;;;;;;4995217;28;20058;-84
2021/03/27 11:32:15;;;;;;;3.60;1.33;;;;;;;;;;4976194;28;20026;-83
2021/03/27 11:35:03;;;;;;;3.75;1.63;;;;;;;;;;4976591;28;20053;-83
2021/03/27 11:37:58;;;;;;;4.55;2.00;;;;;;;;;;4977637;28;20465;-84
2021/03/27 11:41:12;;;;;;;3.65;1.30;;;;;;;;;;4979171;28;20534;-83
2021/03/27 11:44:21;;;;;;;3.92;1.45;;;;;;;;;;4967581;28;20046;-83
2021/03/27 11:47:15;;;;;;;2.63;1.25;;;;;;;;;;4986031;28;20019;-83
2021/03/27 11:50:10;;;;;;;3.30;1.23;;;;;;;;;;4982792;28;20026;-83
2021/03/27 11:52:58;;;;;;;4.80;1.40;;;;;;;;;;4982430;28;20572;-82
2021/03/27 11:56:02;;;;;;;3.38;1.40;;;;;;;;;;4984810;28;20599;-82
2021/03/27 12:02:29;;;;;;;4.28;1.30;;;;;;;;;;4981391;28;20121;-84
2021/03/27 12:05:33;;;;;;;3.38;1.33;;;;;;;;;;4986779;28;20484;-82
2021/03/27 12:08:24;;;;;;;3.42;1.63;;;;;;;;;;4969871;28;20400;-82
2021/03/27 12:11:10;;;;;;;3.13;1.60;;;;;;;;;;4983908;28;20022;-81
2021/03/27 12:13:55;;;;;;;5.55;1.50;;;;;;;;;;4976372;28;20019;-83
2021/03/27 12:16:59;;;;;;;4.82;1.52;;;;;;;;;;4994455;28;20030;-84
2021/03/27 12:19:44;;;;;;;4.82;1.30;;;;;;;;;;4997601;28;20049;-83
2021/03/27 12:22:38;;;;;;;2.78;1.02;;;;;;;;;;4981088;28;20022;-83
2021/03/27 12:25:26;;;;;;;3.28;1.35;;;;;;;;;;4995351;28;20056;-83
2021/03/27 12:28:30;;;;;;;3.78;1.30;;;;;;;;;;4982169;28;20457;-83
2021/03/27 12:31:29;;;;;;;6.25;1.58;;;;;;;;;;4992361;28;20026;-84
2021/03/27 12:34:19;;;;;;;3.67;1.67;;;;;;;;;;4981036;28;20097;-84
2021/03/27 12:37:08;;;;;;;3.17;1.27;;;;;;;;;;4997345;28;20077;-83
2021/03/27 12:40:01;;;;;;;3.50;1.37;;;;;;;;;;4983157;28;20021;-81
2021/03/27 12:42:52;;;;;;;5.07;1.48;;;;;;;;;;4982198;28;20113;-84
2021/03/27 12:45:39;;;;;;;4.18;1.27;;;;;;;;;;4989080;28;20567;-91
2021/03/27 12:48:24;;;;;;;2.92;1.38;;;;;;;;;;4983793;28;20741;-88
2021/03/27 12:54:06;;;;;;;7.38;1.63;;;;;;;;;;5479209;23;21390;-90
2021/03/27 12:57:16;;;;;;;2.67;1.00;;;;;;;;;;4989753;28;20022;-85
2021/03/27 13:00:05;;;;;;;4.20;1.20;;;;;;;;;;4980645;28;20125;-89
2021/03/27 13:03:06;;;;;;;4.20;1.40;;;;;;;;;;4980352;28;20026;-86
2021/03/27 13:05:58;;;;;;;3.90;1.30;;;;;;;;;;4986855;28;20070;-83
2021/03/27 13:08:51;;;;;;;4.88;1.65;;;;;;;;;;4998507;28;20022;-85
2021/03/27 13:11:39;;;;;;;4.10;1.42;;;;;;;;;;5005437;28;20033;-87
2021/03/27 13:14:43;;;;;;;3.38;2.10;;;;;;;;;;4981041;28;20030;-83
2021/03/27 13:17:48;;;;;;;5.75;1.23;;;;;;;;;;4993731;28;20037;-86
2021/03/27 13:20:49;;;;;;;4.22;1.17;;;;;;;;;;4980288;28;20038;-87
2021/03/27 13:23:46;;;;;;;1.95;1.17;;;;;;;;;;4991604;28;20030;-88
2021/03/27 13:26:32;;;;;;;5.63;1.30;;;;;;;;;;4992885;28;20032;-85
2021/03/27 13:29:33;;;;;;;3.08;1.20;;;;;;;;;;4993194;28;20018;-87
2021/03/27 13:32:24;;;;;;;7.30;1.60;;;;;;;;;;4986049;28;20045;-85
2021/03/27 13:42:17;;;;;;;2.72;1.30;;;;;;;;;;4984688;28;20488;-82
2021/03/27 13:48:36;;;;;;;5.43;1.70;;;;;;;;;;4987836;28;20030;-82
2021/03/27 13:51:38;;;;;;;57.22;4.00;;;;;;;;;;5000007;28;20045;-84
2021/03/27 13:54:50;;;;;;;5.00;1.45;;;;;;;;;;4986000;28;20046;-84
2021/03/27 13:57:38;;;;;;;3.72;1.40;;;;;;;;;;4990323;28;20068;-80
2021/03/27 14:03:59;;;;;;;3.20;1.35;;;;;;;;;;4991363;28;20500;-85
2021/03/27 14:06:59;;;;;;;5.38;1.38;;;;;;;;;;4991314;28;20034;-86
2021/03/27 14:09:54;;;;;;;9.60;1.55;;;;;;;;;;4990553;28;20456;-82
2021/03/27 14:12:43;;;;;;;4.85;1.98;;;;;;;;;;5004537;28;20022;-88
2021/03/27 14:15:58;;;;;;;2.13;1.07;;;;;;;;;;4991054;28;20614;-88
2021/03/27 14:18:52;;;;;;;4.50;1.50;;;;;;;;;;4990254;28;20116;-84
2021/03/27 14:21:43;;;;;;;5.18;1.52;;;;;;;;;;4978054;28;20029;-84
2021/03/27 14:24:45;;;;;;;3.17;1.42;;;;;;;;;;4991060;28;20040;-87
2021/03/27 14:27:46;;;;;;;4.80;1.45;;;;;;;;;;4999894;28;20699;-84
2021/03/27 14:30:35;;;;;;;8.13;1.50;;;;;;;;;;5003431;28;20030;-85
2021/03/27 14:33:28;;;;;;;4.43;1.48;;;;;;;;;;4992610;28;20036;-86
2021/03/27 14:36:15;;;;;;;8.15;2.08;;;;;;;;;;4992634;28;20542;-80
2021/03/27 14:39:20;;;;;;;6.35;1.50;;;;;;;;;;4993555;28;20033;-80
2021/03/27 14:42:09;;;;;;;4.78;1.38;;;;;;;;;;4952290;28;20035;-84
2021/03/27 14:45:20;;;;;;;4.47;1.48;;;;;;;;;;4996844;28;20555;-80
2021/03/27 14:48:35;;;;;;;3.33;1.20;;;;;;;;;;4986568;28;20054;-83
2021/03/27 14:51:23;;;;;;;2.22;1.02;;;;;;;;;;4989713;28;20045;-82
2021/03/27 14:54:27;;;;;;;3.67;1.30;;;;;;;;;;5002219;28;20403;-88
2021/03/27 14:57:15;;;;;;;5.50;1.52;;;;;;;;;;4995619;28;20625;-82
2021/03/27 15:00:24;;;;;;;4.28;1.60;;;;;;;;;;4997177;28;20036;-81
2021/03/27 15:03:18;;;;;;;4.85;1.65;;;;;;;;;;4970833;28;20048;-83
2021/03/27 15:06:16;;;;;;;3.78;1.40;;;;;;;;;;5012905;28;20017;-84
2021/03/27 15:09:05;;;;;;;4.78;1.35;;;;;;;;;;4994354;28;20033;-82
2021/03/27 15:11:52;;;;;;;5.93;1.30;;;;;;;;;;5010680;28;20565;-87
2021/03/27 15:14:48;;;;;;;8.57;1.75;;;;;;;;;;4996836;28;20018;-90
2021/03/27 15:17:46;;;;;;;7.18;1.25;;;;;;;;;;4998347;28;20022;-88
2021/03/27 15:20:42;;;;;;;7.85;1.38;;;;;;;;;;5008756;28;20118;-88
2021/03/27 15:23:31;;;;;;;4.60;1.33;;;;;;;;;;4982266;28;20081;-90
2021/03/27 15:29:54;;;;;;;4.78;1.52;;;;;;;;;;4995886;28;20030;-86
2021/03/27 15:32:39;;;;;;;6.00;1.40;;;;;;;;;;5012262;28;20025;-86
2021/03/27 15:35:36;;;;;;;8.30;1.40;;;;;;;;;;4994710;28;20396;-88
2021/03/27 15:38:43;;;;;;;3.42;1.50;;;;;;;;;;4997283;28;20034;-88
2021/03/27 15:41:49;;;;;;;7.00;1.75;;;;;;;;;;4999432;28;20034;-87
2021/03/27 15:44:35;;;;;;;2.65;1.20;;;;;;;;;;4985295;28;20468;-88
2021/03/27 15:47:27;;;;;;;6.32;1.60;;;;;;;;;;4995264;28;20450;-87
2021/03/27 15:50:51;;;;;;;4.97;1.83;;;;;;;;;;5007985;28;20036;-90
2021/03/27 15:54:04;;;;;;;6.68;1.85;;;;;;;;;;4958151;28;20545;-90
2021/03/27 15:59:44;;;;;;;6.95;1.63;;;;;;;;;;4987561;28;20504;-88
2021/03/27 16:02:40;;;;;;;6.18;1.63;;;;;;;;;;4977473;28;20030;-87
2021/03/27 16:06:01;;;;;;;5.43;1.65;;;;;;;;;;4960057;28;20390;-87
2021/03/27 16:08:52;;;;;;;7.72;2.22;;;;;;;;;;4910079;29;20023;-86
2021/03/27 16:11:55;;;;;;;4.57;1.55;;;;;;;;;;4911544;29;20486;-86
2021/03/27 16:15:10;;;;;;;5.57;1.50;;;;;;;;;;4915419;29;20426;-86
2021/03/27 16:17:58;;;;;;;6.15;1.52;;;;;;;;;;4956108;28;20037;-87
2021/03/27 16:21:04;;;;;;;3.83;1.60;;;;;;;;;;4967370;28;20058;-88
2021/03/27 16:23:50;;;;;;;6.05;2.05;;;;;;;;;;4963231;28;20109;-87
2021/03/27 16:26:47;;;;;;;11.10;2.05;;;;;;;;;;4985835;28;20026;-87
2021/03/27 16:29:52;;;;;;;5.35;1.65;;;;;;;;;;4970238;28;20034;-86
2021/03/27 16:32:43;;;;;;;5.60;1.50;;;;;;;;;;4973638;28;20124;-88
2021/03/27 16:35:38;;;;;;;5.13;1.75;;;;;;;;;;4971223;28;20381;-89
2021/03/27 16:38:29;;;;;;;6.95;1.25;;;;;;;;;;4979057;28;20038;-85
2021/03/27 16:41:42;;;;;;;5.95;1.73;;;;;;;;;;4975531;28;20392;-88
2021/03/27 16:44:52;;;;;;;5.68;1.88;;;;;;;;;;4978473;28;20065;-90
2021/03/27 16:47:59;;;;;;;4.28;1.45;;;;;;;;;;4971492;28;20030;-87
2021/03/27 16:50:48;;;;;;;5.22;1.80;;;;;;;;;;4969269;28;20368;-83
2021/03/27 16:53:51;;;;;;;6.38;2.30;;;;;;;;;;4965566;28;20025;-86
2021/03/27 16:56:40;;;;;;;10.57;1.70;;;;;;;;;;4976452;28;20479;-89
2021/03/27 16:59:32;;;;;;;6.43;2.38;;;;;;;;;;5004959;28;20129;-91
2021/03/27 17:02:29;;;;;;;5.35;1.70;;;;;;;;;;4996713;28;20026;-83
2021/03/27 17:05:28;;;;;;;3.67;1.83;;;;;;;;;;4993773;28;20026;-82
2021/03/27 17:08:31;;;;;;;7.53;2.25;;;;;;;;;;5003325;28;20030;-83
2021/03/27 17:11:25;;;;;;;4.93;2.10;;;;;;;;;;5004369;28;20030;-92
2021/03/27 17:14:35;;;;;;;4.68;1.50;;;;;;;;;;5002084;28;20121;-89
2021/03/27 17:17:43;;;;;;;4.93;1.35;;;;;;;;;;4989309;28;20058;-91
2021/03/27 17:20:49;;;;;;;7.80;2.13;;;;;;;;;;4978189;28;20026;-94
2021/03/27 17:23:46;;;;;;;5.95;1.95;;;;;;;;;;4991326;28;20019;-93
2021/03/27 17:26:37;;;;;;;6.13;2.10;;;;;;;;;;4980932;28;20034;-91
2021/03/27 17:29:41;;;;;;;5.65;1.75;;;;;;;;;;4992928;28;20129;-91
2021/03/27 17:36:38;;;;;;;;;;;;;;;;;;;;;
2021/03/27 17:39:26;;;;;;;9.07;1.90;;;;;;;;;;4955912;28;20064;-87
2021/03/27 17:42:30;;;;;;;8.07;2.05;;;;;;;;;;5000299;28;20037;-87
2021/03/27 17:45:21;;;;;;;6.47;1.63;;;;;;;;;;4994163;28;20086;-85
2021/03/27 17:48:13;;;;;;;5.15;1.67;;;;;;;;;;4980561;28;20034;-84
2021/03/27 17:51:13;;;;;;;4.68;1.70;;;;;;;;;;4986221;28;20029;-84
2021/03/27 17:54:06;;;;;;;4.45;1.67;;;;;;;;;;4985692;28;20094;-84
2021/03/27 17:56:57;;;;;;;4.85;1.30;;;;;;;;;;4978350;28;20574;-84
2021/03/27 17:59:43;;;;;;;5.65;1.95;;;;;;;;;;4979652;28;20038;-83
2021/03/27 18:02:30;;;;;;;6.63;1.50;;;;;;;;;;4979735;28;20031;-84
2021/03/27 18:05:16;;;;;;;5.43;1.67;;;;;;;;;;4983720;28;20569;-83
2021/03/27 18:08:10;;;;;;;6.93;2.20;;;;;;;;;;4980906;28;20035;-83
2021/03/27 18:11:06;;;;;;;10.98;2.00;;;;;;;;;;4986626;28;20233;-83
2021/03/27 18:13:51;;;;;;;5.22;1.77;;;;;;;;;;5000369;28;20030;-82